createdAt,value
2018-09-23T00:01:47.880Z,23.10
2018-09-23T00:04:16.960Z,23.09
2018-09-23T00:06:46.151Z,23.08
2018-09-23T00:09:15.204Z,23.09
2018-09-23T00:11:44.341Z,23.08
2018-09-23T00:14:13.445Z,23.08
2018-09-23T00:16:42.556Z,23.08
2018-09-23T00:19:11.706Z,23.08
2018-09-23T00:21:40.771Z,23.07
2018-09-23T00:24:09.868Z,23.06
2018-09-23T00:26:39.224Z,23.04
2018-09-23T00:29:08.318Z,23.05
2018-09-23T00:31:37.407Z,23.05
2018-09-23T00:34:06.469Z,23.04
2018-09-23T00:36:35.592Z,23.03
2018-09-23T00:39:05.328Z,23.03
2018-09-23T00:41:34.392Z,23.03
2018-09-23T00:44:03.487Z,23.02
2018-09-23T00:46:32.548Z,23.02
2018-09-23T00:49:01.682Z,23.03
2018-09-23T00:51:31.064Z,23.01
2018-09-23T00:54:00.212Z,23.02
2018-09-23T00:56:29.308Z,23.01
2018-09-23T00:58:58.360Z,23.01
2018-09-23T01:01:27.492Z,23.00
2018-09-23T01:03:56.563Z,23.00
2018-09-23T01:06:25.671Z,22.99
2018-09-23T01:08:54.791Z,22.98
2018-09-23T01:11:23.863Z,22.99
2018-09-23T01:13:53.285Z,22.98
2018-09-23T01:16:22.334Z,22.99
2018-09-23T01:18:51.446Z,22.98
2018-09-23T01:21:20.539Z,22.98
2018-09-23T01:23:49.652Z,22.98
2018-09-23T01:26:18.704Z,22.97
2018-09-23T01:28:47.860Z,22.97
2018-09-23T01:31:16.935Z,22.97
2018-09-23T01:33:46.024Z,22.96
2018-09-23T01:36:15.164Z,22.96
2018-09-23T01:38:44.243Z,22.95
2018-09-23T01:41:13.340Z,22.95
2018-09-23T01:43:42.400Z,22.95
2018-09-23T01:46:11.459Z,22.93
2018-09-23T01:48:40.631Z,22.94
2018-09-23T01:51:09.707Z,22.93
2018-09-23T01:53:38.751Z,22.94
2018-09-23T01:56:07.852Z,22.92
2018-09-23T01:58:37.013Z,22.92
2018-09-23T02:01:06.044Z,22.92
2018-09-23T02:03:35.206Z,22.91
2018-09-23T02:06:04.299Z,22.90
2018-09-23T02:08:34.708Z,22.89
2018-09-23T02:11:03.791Z,22.89
2018-09-23T02:13:32.917Z,22.89
2018-09-23T02:16:02.003Z,22.88
2018-09-23T02:18:31.071Z,22.89
2018-09-23T02:21:00.538Z,22.88
2018-09-23T02:23:29.813Z,22.89
2018-09-23T02:25:58.857Z,22.88
2018-09-23T02:28:27.976Z,22.87
2018-09-23T02:30:57.103Z,22.87
2018-09-23T02:33:26.198Z,22.88
2018-09-23T02:35:55.220Z,22.87
2018-09-23T02:38:24.383Z,22.87
2018-09-23T02:40:53.466Z,22.86
2018-09-23T02:43:22.524Z,22.87
2018-09-23T02:45:51.765Z,22.86
2018-09-23T02:48:20.834Z,22.85
2018-09-23T02:50:49.924Z,22.83
2018-09-23T02:53:24.394Z,22.84
2018-09-23T02:55:53.459Z,22.83
2018-09-23T02:58:22.515Z,22.85
2018-09-23T03:00:51.759Z,22.84
2018-09-23T03:03:20.810Z,22.83
2018-09-23T03:05:49.974Z,22.85
2018-09-23T03:08:19.110Z,22.83
2018-09-23T03:10:48.474Z,22.82
2018-09-23T03:13:17.533Z,22.81
2018-09-23T03:15:46.596Z,22.82
2018-09-23T03:18:15.660Z,22.81
2018-09-23T03:20:44.818Z,22.78
2018-09-23T03:23:13.883Z,22.78
2018-09-23T03:25:43.016Z,22.77
2018-09-23T03:28:12.145Z,22.77
2018-09-23T03:30:41.196Z,22.77
2018-09-23T03:33:10.308Z,22.76
2018-09-23T03:35:39.390Z,22.76
2018-09-23T03:38:08.659Z,22.76
2018-09-23T03:40:37.813Z,22.75
2018-09-23T03:43:06.962Z,22.75
2018-09-23T03:45:36.076Z,22.73
2018-09-23T03:48:05.208Z,22.73
2018-09-23T03:50:34.316Z,22.73
2018-09-23T03:53:03.404Z,22.72
2018-09-23T03:55:32.489Z,22.72
2018-09-23T03:58:01.602Z,22.72
2018-09-23T04:00:30.892Z,22.72
2018-09-23T04:03:00.170Z,22.71
2018-09-23T04:05:29.258Z,22.73
2018-09-23T04:07:58.300Z,22.73
2018-09-23T04:10:27.397Z,22.70
2018-09-23T04:12:56.375Z,22.68
2018-09-23T04:15:25.603Z,22.68
2018-09-23T04:17:54.758Z,22.68
2018-09-23T04:20:25.263Z,22.68
2018-09-23T04:22:54.378Z,22.66
2018-09-23T04:25:23.494Z,22.67
2018-09-23T04:27:53.622Z,22.66
2018-09-23T04:30:22.878Z,22.66
2018-09-23T04:32:51.917Z,22.67
2018-09-23T04:35:20.977Z,22.66
2018-09-23T04:37:50.082Z,22.67
2018-09-23T04:40:19.152Z,22.68
2018-09-23T04:42:48.204Z,22.65
2018-09-23T04:45:17.255Z,22.65
2018-09-23T04:47:46.350Z,22.65
2018-09-23T04:50:15.446Z,22.61
2018-09-23T04:52:44.478Z,22.63
2018-09-23T04:55:13.582Z,22.63
2018-09-23T04:57:42.844Z,22.62
2018-09-23T05:00:11.939Z,22.60
2018-09-23T05:02:40.990Z,22.61
2018-09-23T05:05:10.163Z,22.61
2018-09-23T05:07:39.156Z,22.60
2018-09-23T05:10:08.233Z,22.61
2018-09-23T05:12:37.332Z,22.60
2018-09-23T05:15:06.523Z,22.61
2018-09-23T05:17:35.915Z,22.61
2018-09-23T05:20:05.281Z,22.61
2018-09-23T05:22:34.346Z,22.63
2018-09-23T05:25:03.625Z,22.62
2018-09-23T05:27:32.832Z,22.60
2018-09-23T05:30:01.917Z,22.59
2018-09-23T05:32:31.243Z,22.57
2018-09-23T05:35:00.310Z,22.59
2018-09-23T05:37:29.416Z,22.59
2018-09-23T05:39:58.485Z,22.57
2018-09-23T05:42:27.712Z,22.56
2018-09-23T05:44:56.692Z,22.57
2018-09-23T05:47:25.786Z,22.59
2018-09-23T05:49:54.920Z,22.58
2018-09-23T05:52:23.962Z,22.58
2018-09-23T05:54:53.075Z,22.59
2018-09-23T05:57:22.162Z,22.60
2018-09-23T05:59:51.462Z,22.60
2018-09-23T06:02:20.589Z,22.60
2018-09-23T06:04:49.700Z,22.60
2018-09-23T06:07:18.938Z,22.60
2018-09-23T06:09:48.013Z,22.60
2018-09-23T06:12:17.154Z,22.60
2018-09-23T06:14:46.227Z,22.59
2018-09-23T06:17:15.384Z,22.61
2018-09-23T06:19:44.473Z,22.61
2018-09-23T06:22:13.563Z,22.59
2018-09-23T06:24:42.642Z,22.61
2018-09-23T06:27:11.761Z,22.60
2018-09-23T06:29:40.836Z,22.61
2018-09-23T06:32:10.042Z,22.60
2018-09-23T06:34:39.357Z,22.59
2018-09-23T06:37:08.635Z,22.59
2018-09-23T06:39:37.958Z,22.58
2018-09-23T06:42:07.157Z,22.59
2018-09-23T06:44:36.126Z,22.57
2018-09-23T06:47:05.327Z,22.57
2018-09-23T06:49:34.445Z,22.56
2018-09-23T06:52:04.041Z,22.56
2018-09-23T06:54:33.132Z,22.54
2018-09-23T06:57:02.234Z,22.53
2018-09-23T06:59:31.507Z,22.52
2018-09-23T07:02:00.616Z,22.53
2018-09-23T07:04:29.741Z,22.51
2018-09-23T07:06:58.999Z,22.53
2018-09-23T07:09:28.015Z,22.53
2018-09-23T07:11:57.106Z,22.52
2018-09-23T07:14:26.235Z,22.53
2018-09-23T07:16:55.819Z,22.53
2018-09-23T07:19:24.915Z,22.53
2018-09-23T07:21:53.981Z,22.52
2018-09-23T07:24:23.057Z,22.53
2018-09-23T07:26:52.129Z,22.54
2018-09-23T07:29:21.212Z,22.51
2018-09-23T07:31:50.291Z,22.53
2018-09-23T07:34:19.372Z,22.52
2018-09-23T07:36:48.561Z,22.51
2018-09-23T07:39:17.697Z,22.51
2018-09-23T07:41:46.771Z,22.49
2018-09-23T07:44:15.884Z,22.49
2018-09-23T07:46:44.982Z,22.50
2018-09-23T07:49:14.225Z,22.49
2018-09-23T07:51:43.279Z,22.50
2018-09-23T07:54:12.350Z,22.51
2018-09-23T07:56:41.468Z,22.49
2018-09-23T07:59:10.704Z,22.49
2018-09-23T08:01:39.854Z,22.50
2018-09-23T08:04:08.923Z,22.49
2018-09-23T08:06:38.050Z,22.48
2018-09-23T08:09:08.011Z,22.48
2018-09-23T08:11:37.313Z,22.46
2018-09-23T08:14:07.025Z,22.45
2018-09-23T08:16:35.940Z,22.47
2018-09-23T08:19:05.567Z,22.49
2018-09-23T08:21:34.676Z,22.46
2018-09-23T08:24:03.755Z,22.43
2018-09-23T08:26:33.097Z,22.45
2018-09-23T08:29:02.355Z,22.44
2018-09-23T08:31:31.444Z,22.43
2018-09-23T08:34:00.587Z,22.43
2018-09-23T08:36:29.888Z,22.44
2018-09-23T08:38:59.055Z,22.46
2018-09-23T08:41:28.164Z,22.44
2018-09-23T08:43:57.201Z,22.46
2018-09-23T08:46:26.435Z,22.50
2018-09-23T08:48:55.534Z,22.53
2018-09-23T08:51:24.739Z,22.55
2018-09-23T08:53:53.939Z,22.58
2018-09-23T08:56:23.144Z,22.60
2018-09-23T08:58:52.208Z,22.63
2018-09-23T09:01:21.272Z,22.67
2018-09-23T09:03:50.452Z,22.69
2018-09-23T09:06:19.697Z,22.70
2018-09-23T09:08:48.834Z,22.73
2018-09-23T09:11:17.904Z,22.76
2018-09-23T09:13:47.004Z,22.78
2018-09-23T09:16:16.107Z,22.78
2018-09-23T09:18:45.362Z,22.81
2018-09-23T09:21:14.509Z,22.82
2018-09-23T09:23:43.684Z,22.83
2018-09-23T09:26:12.812Z,22.86
2018-09-23T09:28:41.895Z,22.87
2018-09-23T09:31:10.972Z,22.88
2018-09-23T09:33:40.064Z,22.88
2018-09-23T09:36:09.124Z,22.91
2018-09-23T09:38:38.360Z,22.91
2018-09-23T09:41:07.704Z,22.93
2018-09-23T09:43:36.788Z,22.96
2018-09-23T09:46:05.976Z,22.96
2018-09-23T09:48:35.073Z,22.97
2018-09-23T09:51:04.132Z,22.98
2018-09-23T09:53:33.275Z,23.00
2018-09-23T09:56:02.535Z,22.99
2018-09-23T09:58:31.595Z,23.00
2018-09-23T10:01:00.756Z,23.02
2018-09-23T10:03:30.856Z,23.04
2018-09-23T10:06:00.248Z,23.04
2018-09-23T10:08:29.351Z,23.07
2018-09-23T10:10:58.475Z,23.07
2018-09-23T10:13:27.697Z,23.08
2018-09-23T10:15:56.852Z,23.08
2018-09-23T10:18:26.068Z,23.10
2018-09-23T10:20:55.167Z,23.13
2018-09-23T10:23:24.318Z,23.11
2018-09-23T10:25:53.512Z,23.13
2018-09-23T10:28:22.644Z,23.14
2018-09-23T10:30:51.869Z,23.16
2018-09-23T10:33:20.966Z,23.19
2018-09-23T10:35:50.049Z,23.19
2018-09-23T10:38:19.299Z,23.20
2018-09-23T10:40:48.413Z,23.20
2018-09-23T10:43:17.540Z,23.21
2018-09-23T10:45:46.731Z,23.21
2018-09-23T10:48:15.846Z,23.23
2018-09-23T10:50:44.924Z,23.23
2018-09-23T10:53:14.125Z,23.22
2018-09-23T10:55:43.408Z,23.24
2018-09-23T10:58:12.619Z,23.26
2018-09-23T11:00:41.834Z,23.27
2018-09-23T11:03:10.932Z,23.28
2018-09-23T11:05:40.221Z,23.32
2018-09-23T11:08:09.384Z,23.30
2018-09-23T11:10:38.541Z,23.30
2018-09-23T11:13:07.699Z,23.30
2018-09-23T11:15:36.800Z,23.32
2018-09-23T11:18:06.023Z,23.33
2018-09-23T11:20:35.119Z,23.37
2018-09-23T11:23:04.188Z,23.38
2018-09-23T11:25:33.387Z,23.42
2018-09-23T11:28:02.495Z,23.41
2018-09-23T11:30:31.611Z,23.44
2018-09-23T11:33:00.936Z,23.45
2018-09-23T11:35:30.092Z,23.44
2018-09-23T11:37:59.287Z,23.44
2018-09-23T11:40:28.362Z,23.45
2018-09-23T11:42:57.480Z,23.48
2018-09-23T11:45:26.788Z,23.53
2018-09-23T11:47:55.873Z,23.53
2018-09-23T11:50:25.086Z,23.55
2018-09-23T11:52:54.182Z,23.55
2018-09-23T11:55:23.245Z,23.56
2018-09-23T11:57:52.436Z,23.58
2018-09-23T12:00:21.500Z,23.61
2018-09-23T12:02:51.512Z,23.59
2018-09-23T12:05:20.663Z,23.59
2018-09-23T12:07:49.768Z,23.59
2018-09-23T12:10:18.878Z,23.58
2018-09-23T12:12:48.172Z,23.61
2018-09-23T12:15:17.346Z,23.62
2018-09-23T12:17:46.520Z,23.62
2018-09-23T12:20:15.674Z,23.59
2018-09-23T12:22:44.738Z,23.61
2018-09-23T12:25:14.093Z,23.60
2018-09-23T12:27:43.422Z,23.60
2018-09-23T12:30:12.765Z,23.59
2018-09-23T12:32:41.971Z,23.58
2018-09-23T12:35:11.167Z,23.60
2018-09-23T12:37:40.552Z,23.59
2018-09-23T12:40:09.668Z,23.60
2018-09-23T12:42:38.866Z,23.63
2018-09-23T12:45:08.520Z,23.63
2018-09-23T12:47:37.649Z,23.61
2018-09-23T12:50:06.870Z,23.61
2018-09-23T12:52:35.956Z,23.61
2018-09-23T12:55:05.012Z,23.63
2018-09-23T12:57:34.164Z,23.59
2018-09-23T13:00:03.346Z,23.61
2018-09-23T13:02:32.454Z,23.61
2018-09-23T13:05:01.762Z,23.59
2018-09-23T13:07:31.054Z,23.61
2018-09-23T13:10:00.118Z,23.61
2018-09-23T13:12:29.479Z,23.61
2018-09-23T13:14:59.060Z,23.61
2018-09-23T13:17:28.188Z,23.60
2018-09-23T13:19:57.318Z,23.59
2018-09-23T13:22:26.448Z,23.57
2018-09-23T13:24:55.648Z,23.57
2018-09-23T13:27:24.719Z,23.54
2018-09-23T13:29:53.876Z,23.55
2018-09-23T13:32:23.038Z,23.53
2018-09-23T13:34:52.738Z,23.59
2018-09-23T13:37:21.892Z,23.59
2018-09-23T13:39:51.052Z,23.58
2018-09-23T13:42:20.137Z,23.59
2018-09-23T13:44:49.148Z,23.60
2018-09-23T13:47:18.229Z,23.61
2018-09-23T13:49:47.290Z,23.62
2018-09-23T13:52:17.125Z,23.66
2018-09-23T13:54:46.302Z,23.65
2018-09-23T13:57:15.530Z,23.59
2018-09-23T13:59:44.870Z,23.52
2018-09-23T14:02:13.996Z,23.48
2018-09-23T14:04:43.074Z,23.44
2018-09-23T14:07:12.120Z,23.41
2018-09-23T14:09:41.188Z,23.36
2018-09-23T14:12:10.372Z,23.35
2018-09-23T14:14:39.596Z,23.33
2018-09-23T14:17:08.676Z,23.30
2018-09-23T14:19:38.123Z,23.28
2018-09-23T14:22:07.284Z,23.27
2018-09-23T14:24:36.508Z,23.25
2018-09-23T14:27:05.543Z,23.22
2018-09-23T14:29:34.700Z,23.20
2018-09-23T14:32:03.915Z,23.18
2018-09-23T14:34:32.963Z,23.14
2018-09-23T14:37:03.092Z,23.14
2018-09-23T14:39:32.180Z,23.12
2018-09-23T14:42:01.301Z,23.10
2018-09-23T14:44:30.660Z,23.07
2018-09-23T14:46:59.788Z,23.05
2018-09-23T14:49:28.975Z,23.05
2018-09-23T14:51:58.062Z,23.06
2018-09-23T14:54:27.225Z,23.07
2018-09-23T14:56:56.444Z,23.09
2018-09-23T14:59:25.743Z,23.10
2018-09-23T15:01:54.992Z,23.09
2018-09-23T15:07:26.785Z,23.13
2018-09-23T15:09:56.995Z,23.16
2018-09-23T15:12:26.139Z,23.15
2018-09-23T15:14:55.292Z,23.16
2018-09-23T15:17:24.507Z,23.14
2018-09-23T15:19:53.725Z,23.16
2018-09-23T15:22:23.389Z,23.15
2018-09-23T15:24:52.909Z,23.14
2018-09-23T15:27:21.988Z,23.13
2018-09-23T15:29:51.200Z,23.14
2018-09-23T15:32:20.410Z,23.16
2018-09-23T15:34:49.604Z,23.13
2018-09-23T15:37:18.811Z,23.15
2018-09-23T15:39:47.882Z,23.14
2018-09-23T15:42:17.018Z,23.15
2018-09-23T15:44:46.458Z,23.13
2018-09-23T15:47:15.567Z,23.12
2018-09-23T15:49:44.683Z,23.13
2018-09-23T15:52:13.800Z,23.11
2018-09-23T15:54:43.088Z,23.12
2018-09-23T15:57:12.254Z,23.12
2018-09-23T15:59:41.368Z,23.14
2018-09-23T16:02:10.540Z,23.14
2018-09-23T16:04:39.628Z,23.15
2018-09-23T16:07:08.778Z,23.13
2018-09-23T16:09:38.080Z,23.12
2018-09-23T16:12:07.175Z,23.08
2018-09-23T16:14:36.323Z,23.06
2018-09-23T16:17:05.436Z,23.04
2018-09-23T16:19:34.526Z,23.03
2018-09-23T16:22:03.685Z,23.01
2018-09-23T16:24:32.838Z,22.99
2018-09-23T16:27:02.152Z,22.98
2018-09-23T16:29:31.243Z,22.97
2018-09-23T16:32:00.396Z,22.95
2018-09-23T16:34:29.700Z,22.94
2018-09-23T16:36:58.819Z,22.93
2018-09-23T16:39:27.909Z,22.93
2018-09-23T16:41:57.136Z,22.90
2018-09-23T16:44:26.215Z,22.90
2018-09-23T16:46:55.342Z,22.88
2018-09-23T16:49:24.415Z,22.86
2018-09-23T16:51:53.499Z,22.85
2018-09-23T16:54:23.431Z,22.84
2018-09-23T16:56:52.637Z,22.85
2018-09-23T16:59:21.738Z,22.83
2018-09-23T17:01:50.802Z,22.83
2018-09-23T17:04:19.913Z,22.82
2018-09-23T17:06:48.980Z,22.80
2018-09-23T17:09:18.149Z,22.81
2018-09-23T17:11:47.194Z,22.81
2018-09-23T17:14:16.296Z,22.81
2018-09-23T17:16:45.404Z,22.78
2018-09-23T17:19:14.496Z,22.78
2018-09-23T17:21:43.957Z,22.82
2018-09-23T17:24:13.076Z,22.82
2018-09-23T17:26:42.304Z,22.84
2018-09-23T17:29:11.360Z,22.84
2018-09-23T17:31:40.412Z,22.86
2018-09-23T17:34:09.598Z,22.88
2018-09-23T17:36:38.670Z,22.89
2018-09-23T17:39:09.469Z,22.89
2018-09-23T17:41:38.639Z,22.89
2018-09-23T17:44:07.862Z,22.87
2018-09-23T17:46:37.161Z,22.84
2018-09-23T17:49:06.278Z,22.83
2018-09-23T17:51:35.412Z,22.83
2018-09-23T17:54:04.502Z,22.81
2018-09-23T17:56:33.651Z,22.78
2018-09-23T17:59:02.947Z,22.77
2018-09-23T18:01:32.057Z,22.76
2018-09-23T18:04:01.347Z,22.76
2018-09-23T18:06:30.485Z,22.77
2018-09-23T18:08:59.545Z,22.74
2018-09-23T18:11:28.655Z,22.73
2018-09-23T18:13:58.779Z,22.71
2018-09-23T18:16:28.024Z,22.71
2018-09-23T18:18:57.180Z,22.71
2018-09-23T18:21:26.254Z,22.70
2018-09-23T18:23:55.302Z,22.70
2018-09-23T18:26:24.475Z,22.69
2018-09-23T18:28:53.545Z,22.68
2018-09-23T18:31:22.690Z,22.68
2018-09-23T18:33:51.760Z,22.67
2018-09-23T18:36:20.866Z,22.67
2018-09-23T18:38:50.058Z,22.66
2018-09-23T18:41:19.129Z,22.65
2018-09-23T18:43:48.275Z,22.66
2018-09-23T18:46:17.328Z,22.66
2018-09-23T18:48:46.455Z,22.65
2018-09-23T18:51:15.866Z,22.64
2018-09-23T18:53:50.299Z,22.64
2018-09-23T18:56:19.485Z,22.62
2018-09-23T18:58:48.555Z,22.63
2018-09-23T19:01:17.657Z,22.62
2018-09-23T19:03:46.780Z,22.63
2018-09-23T19:06:16.181Z,22.61
2018-09-23T19:08:45.343Z,22.60
2018-09-23T19:11:14.454Z,22.60
2018-09-23T19:13:48.897Z,22.60
2018-09-23T19:16:23.283Z,22.60
2018-09-23T19:18:52.862Z,22.59
2018-09-23T19:21:22.161Z,22.58
2018-09-23T19:23:51.287Z,22.57
2018-09-23T19:26:20.516Z,22.56
2018-09-23T19:28:49.875Z,22.55
2018-09-23T19:31:18.983Z,22.55
2018-09-23T19:33:48.120Z,22.55
2018-09-23T19:36:17.176Z,22.56
2018-09-23T19:38:46.266Z,22.56
2018-09-23T19:41:15.529Z,22.57
2018-09-23T19:43:44.684Z,22.57
2018-09-23T19:46:13.859Z,22.55
2018-09-23T19:48:42.959Z,22.56
2018-09-23T19:51:12.210Z,22.57
2018-09-23T19:53:41.367Z,22.58
2018-09-23T19:56:10.465Z,22.57
2018-09-23T19:58:39.687Z,22.57
2018-09-23T20:01:09.055Z,22.57
2018-09-23T20:03:38.280Z,22.56
2018-09-23T20:06:07.437Z,22.54
2018-09-23T20:08:36.615Z,22.55
2018-09-23T20:11:05.923Z,22.53
2018-09-23T20:13:34.999Z,22.54
2018-09-23T20:16:04.103Z,22.51
2018-09-23T20:18:33.208Z,22.51
2018-09-23T20:21:02.333Z,22.52
2018-09-23T20:23:31.541Z,22.51
2018-09-23T20:26:00.607Z,22.50
2018-09-23T20:28:29.663Z,22.49
2018-09-23T20:30:58.837Z,22.48
2018-09-23T20:33:27.947Z,22.50
2018-09-23T20:35:57.001Z,22.47
2018-09-23T20:38:26.351Z,22.48
2018-09-23T20:40:55.524Z,22.48
2018-09-23T20:43:24.683Z,22.46
2018-09-23T20:45:55.037Z,22.45
2018-09-23T20:48:24.147Z,22.46
2018-09-23T20:50:53.348Z,22.45
2018-09-23T20:53:22.643Z,22.46
2018-09-23T20:55:53.471Z,22.45
2018-09-23T20:58:22.591Z,22.45
2018-09-23T21:00:51.939Z,22.44
2018-09-23T21:03:21.041Z,22.45
2018-09-23T21:05:50.292Z,22.45
2018-09-23T21:08:19.372Z,22.42
2018-09-23T21:10:48.576Z,22.43
2018-09-23T21:13:17.692Z,22.40
2018-09-23T21:15:46.989Z,22.39
2018-09-23T21:18:16.117Z,22.39
2018-09-23T21:20:45.324Z,22.37
2018-09-23T21:23:14.895Z,22.38
2018-09-23T21:25:44.047Z,22.37
2018-09-23T21:28:13.271Z,22.37
2018-09-23T21:30:42.339Z,22.37
2018-09-23T21:33:11.481Z,22.37
2018-09-23T21:35:40.624Z,22.37
2018-09-23T21:38:09.969Z,22.36
2018-09-23T21:40:39.104Z,22.37
2018-09-23T21:43:08.281Z,22.35
2018-09-23T21:45:37.472Z,22.35
2018-09-23T21:48:06.609Z,22.36
2018-09-23T21:50:35.667Z,22.36
2018-09-23T21:53:04.829Z,22.36
2018-09-23T21:55:33.895Z,22.36
2018-09-23T21:58:02.973Z,22.34
2018-09-23T22:00:37.517Z,22.34
2018-09-23T22:03:06.599Z,22.34
2018-09-23T22:05:35.775Z,22.34
2018-09-23T22:08:04.936Z,22.32
2018-09-23T22:10:34.109Z,22.32
2018-09-23T22:13:03.290Z,22.29
2018-09-23T22:15:32.432Z,22.28
2018-09-23T22:18:01.604Z,22.27
2018-09-23T22:20:30.735Z,22.26
2018-09-23T22:22:59.913Z,22.26
2018-09-23T22:25:29.132Z,22.25
2018-09-23T22:27:58.227Z,22.25
2018-09-23T22:30:27.292Z,22.25
2018-09-23T22:32:56.387Z,22.24
2018-09-23T22:35:25.468Z,22.23
2018-09-23T22:37:54.556Z,22.23
2018-09-23T22:40:23.687Z,22.22
2018-09-23T22:42:52.763Z,22.23
2018-09-23T22:45:21.850Z,22.22
2018-09-23T22:47:50.976Z,22.22
2018-09-23T22:50:20.157Z,22.22
2018-09-23T22:52:49.275Z,22.20
2018-09-23T22:55:18.327Z,22.17
2018-09-23T22:57:47.440Z,22.17
2018-09-23T23:00:16.516Z,22.18
2018-09-23T23:02:45.641Z,22.18
2018-09-23T23:05:14.756Z,22.17
2018-09-23T23:07:43.820Z,22.17
2018-09-23T23:10:12.952Z,22.17
2018-09-23T23:12:42.320Z,22.17
2018-09-23T23:15:11.416Z,22.15
2018-09-23T23:17:40.519Z,22.15
2018-09-23T23:20:09.656Z,22.16
2018-09-23T23:22:38.752Z,22.16
2018-09-23T23:25:07.911Z,22.16
2018-09-23T23:27:37.033Z,22.17
2018-09-23T23:30:06.499Z,22.16
2018-09-23T23:38:30.482Z,22.15
2018-09-23T23:40:59.571Z,22.14
2018-09-23T23:43:28.771Z,22.13
2018-09-23T23:45:57.871Z,22.13
2018-09-23T23:48:27.059Z,22.14
2018-09-23T23:50:56.176Z,22.13
2018-09-23T23:53:25.343Z,22.13
2018-09-23T23:55:54.547Z,22.11
2018-09-23T23:58:23.627Z,22.10
